createdAt,value
2022-10-11T00:02:09.320Z,85.60
2022-10-11T00:07:10.851Z,86.61
2022-10-11T00:12:12.446Z,86.86
2022-10-11T00:17:14.689Z,88.08
2022-10-11T00:22:16.264Z,88.35
2022-10-11T00:27:17.881Z,86.07
2022-10-11T00:32:19.559Z,85.72
2022-10-11T00:37:21.115Z,87.64
2022-10-11T00:42:23.063Z,86.41
2022-10-11T00:47:25.043Z,86.09
2022-10-11T00:52:42.069Z,86.11
2022-10-11T00:57:48.374Z,86.47
2022-10-11T01:02:50.507Z,87.69
2022-10-11T01:07:53.199Z,88.08
2022-10-11T01:13:24.425Z,89.46
2022-10-11T01:18:34.563Z,89.91
2022-10-11T01:23:52.572Z,88.40
2022-10-11T01:29:00.048Z,90.64
2022-10-11T01:34:31.470Z,91.30
2022-10-11T01:39:42.480Z,92.54
2022-10-11T01:44:48.298Z,91.18
2022-10-11T01:49:58.920Z,91.95
2022-10-11T01:55:15.305Z,90.33
2022-10-11T02:00:23.770Z,91.22
2022-10-11T02:05:52.562Z,93.02
2022-10-11T02:11:10.373Z,92.37
2022-10-11T02:16:16.570Z,92.93
2022-10-11T02:21:23.920Z,91.83
2022-10-11T02:26:30.580Z,92.99
2022-10-11T02:31:36.356Z,93.14
2022-10-11T02:36:54.230Z,93.38
2022-10-11T02:41:59.877Z,94.89
2022-10-11T02:47:02.098Z,94.51
2022-10-11T02:52:06.243Z,93.93
2022-10-11T02:57:07.841Z,93.28
2022-10-11T03:02:09.432Z,93.03
2022-10-11T03:07:11.011Z,94.54
2022-10-11T03:12:12.595Z,92.66
2022-10-11T03:17:34.947Z,93.60
2022-10-11T03:22:35.847Z,92.98
2022-10-11T03:27:37.379Z,89.58
2022-10-11T03:32:39.055Z,85.55
2022-10-11T03:37:40.558Z,82.84
2022-10-11T03:42:42.159Z,82.95
2022-10-11T03:47:43.711Z,82.53
2022-10-11T03:52:45.612Z,80.99
2022-10-11T03:57:47.293Z,82.10
2022-10-11T04:02:48.820Z,81.59
2022-10-11T04:07:50.887Z,83.94
2022-10-11T04:12:52.529Z,85.25
2022-10-11T04:17:54.246Z,86.31
2022-10-11T04:22:56.166Z,87.88
2022-10-11T04:27:58.057Z,86.08
2022-10-11T04:32:59.844Z,86.18
2022-10-11T04:38:01.574Z,85.90
2022-10-11T04:43:03.259Z,85.89
2022-10-11T04:48:05.511Z,84.97
2022-10-11T04:53:07.125Z,84.13
2022-10-11T04:58:08.827Z,83.78
2022-10-11T05:03:10.483Z,85.19
2022-10-11T05:08:12.349Z,85.55
2022-10-11T05:13:14.393Z,86.21
2022-10-11T05:18:16.267Z,87.78
2022-10-11T05:23:17.777Z,88.03
2022-10-11T05:28:20.272Z,89.55
2022-10-11T05:33:23.155Z,88.95
2022-10-11T05:38:24.714Z,89.11
2022-10-11T05:43:26.852Z,90.38
2022-10-11T05:48:28.595Z,91.89
2022-10-11T05:53:30.994Z,94.00
2022-10-11T05:58:33.905Z,94.73
2022-10-11T06:03:35.432Z,93.84
2022-10-11T06:08:37.039Z,93.99
2022-10-11T06:13:38.647Z,93.65
2022-10-11T06:18:40.684Z,95.27
2022-10-11T06:23:42.301Z,95.45
2022-10-11T06:28:44.373Z,91.53
2022-10-11T06:33:45.958Z,92.90
2022-10-11T06:38:47.605Z,93.33
2022-10-11T06:43:52.102Z,92.87
2022-10-11T06:48:54.334Z,91.65
2022-10-11T06:53:59.162Z,90.63
2022-10-11T06:59:00.998Z,94.23
2022-10-11T07:04:03.084Z,92.87
2022-10-11T07:09:05.317Z,91.39
2022-10-11T07:14:08.037Z,89.82
2022-10-11T07:19:09.858Z,90.67
2022-10-11T07:24:11.617Z,89.27
2022-10-11T07:29:13.285Z,90.55
2022-10-11T07:34:15.873Z,89.47
2022-10-11T07:39:17.419Z,88.76
2022-10-11T07:44:18.978Z,90.71
2022-10-11T07:49:20.518Z,90.31
2022-10-11T07:54:22.064Z,90.15
2022-10-11T07:59:23.594Z,85.52
2022-10-11T08:04:25.200Z,81.95
2022-10-11T08:09:26.758Z,82.32
2022-10-11T08:14:28.349Z,81.80
2022-10-11T08:19:29.868Z,81.69
2022-10-11T08:24:37.314Z,82.02
2022-10-11T08:29:39.876Z,82.49
2022-10-11T08:34:41.489Z,82.08
2022-10-11T08:39:43.089Z,82.89
2022-10-11T08:45:10.169Z,79.99
2022-10-11T08:50:22.013Z,79.11
2022-10-11T08:55:29.607Z,77.34
2022-10-11T09:00:36.207Z,76.26
2022-10-11T09:06:06.742Z,72.28
2022-10-11T09:11:17.592Z,69.16
2022-10-11T09:16:47.678Z,67.80
2022-10-11T09:22:01.436Z,68.48
2022-10-11T09:27:43.666Z,66.38
2022-10-11T09:33:08.764Z,66.55
2022-10-11T09:38:19.350Z,64.06
2022-10-11T09:43:21.007Z,65.04
2022-10-11T09:48:38.537Z,63.02
2022-10-11T09:54:12.451Z,58.70
2022-10-11T09:59:31.202Z,58.54
2022-10-11T10:04:32.747Z,55.95
2022-10-11T10:09:34.357Z,54.74
2022-10-11T10:14:36.041Z,53.95
2022-10-11T10:19:47.199Z,50.46
2022-10-11T10:24:51.057Z,50.55
2022-10-11T10:30:07.862Z,48.43
2022-10-11T10:35:16.966Z,47.82
2022-10-11T10:40:41.851Z,48.21
2022-10-11T10:45:58.350Z,47.85
2022-10-11T10:51:08.379Z,46.26
2022-10-11T10:56:37.309Z,43.40
2022-10-11T11:02:06.719Z,45.26
2022-10-11T11:07:30.504Z,44.91
2022-10-11T11:12:54.333Z,46.39
2022-10-11T11:18:26.838Z,44.00
2022-10-11T11:23:41.043Z,42.02
2022-10-11T11:29:02.376Z,43.77
2022-10-11T11:34:09.953Z,43.54
2022-10-11T11:39:23.304Z,42.36
2022-10-11T11:44:31.385Z,42.93
2022-10-11T11:49:39.810Z,42.15
2022-10-11T11:55:01.483Z,42.67
2022-10-11T12:00:14.419Z,44.20
2022-10-11T12:05:20.907Z,46.27
2022-10-11T12:11:00.886Z,48.68
2022-10-11T12:16:11.356Z,49.24
2022-10-11T12:21:21.833Z,48.75
2022-10-11T12:26:29.279Z,46.27
2022-10-11T12:31:34.275Z,47.00
2022-10-11T12:36:39.580Z,45.25
2022-10-11T12:41:50.216Z,42.42
2022-10-11T12:46:53.599Z,44.14
2022-10-11T12:52:21.580Z,43.79
2022-10-11T12:57:45.911Z,45.99
2022-10-11T13:02:49.005Z,45.17
2022-10-11T13:07:53.028Z,46.32
2022-10-11T13:12:56.637Z,48.39
2022-10-11T13:18:00.818Z,46.50
2022-10-11T13:23:02.853Z,47.23
2022-10-11T13:28:09.021Z,46.92
2022-10-11T13:33:21.178Z,45.57
2022-10-11T13:38:34.762Z,46.63
2022-10-11T13:43:37.351Z,47.29
2022-10-11T13:48:41.023Z,47.52
2022-10-11T13:54:01.387Z,47.24
2022-10-11T13:59:03.352Z,47.21
2022-10-11T14:04:13.452Z,48.43
2022-10-11T14:14:42.749Z,47.78
2022-10-11T14:19:46.313Z,48.68
2022-10-11T14:24:48.555Z,48.05
2022-10-11T14:30:19.933Z,47.27
2022-10-11T14:35:21.029Z,47.43
2022-10-11T14:40:25.275Z,48.00
2022-10-11T14:45:26.942Z,48.78
2022-10-11T14:50:57.928Z,48.14
2022-10-11T14:55:59.488Z,48.48
2022-10-11T15:01:01.069Z,49.25
2022-10-11T15:06:03.213Z,48.69
2022-10-11T15:11:05.066Z,50.08
2022-10-11T15:16:07.633Z,49.80
2022-10-11T15:21:15.799Z,49.69
2022-10-11T15:26:20.572Z,51.30
2022-10-11T15:31:22.899Z,50.96
2022-10-11T15:36:24.521Z,51.44
2022-10-11T15:41:26.165Z,52.46
2022-10-11T15:46:27.760Z,52.92
2022-10-11T15:51:29.339Z,53.36
2022-10-11T15:56:33.803Z,54.16
2022-10-11T16:01:35.590Z,56.49
2022-10-11T16:06:37.406Z,58.25
2022-10-11T16:11:39.247Z,59.96
2022-10-11T16:16:40.925Z,62.69
2022-10-11T16:21:42.536Z,63.99
2022-10-11T16:26:44.243Z,64.24
2022-10-11T16:31:45.805Z,65.85
2022-10-11T16:36:47.453Z,67.65
2022-10-11T16:41:49.068Z,68.61
2022-10-11T16:46:51.616Z,69.05
2022-10-11T16:51:55.607Z,66.79
2022-10-11T16:56:58.966Z,68.11
2022-10-11T17:02:00.998Z,68.95
2022-10-11T17:07:02.762Z,70.88
2022-10-11T17:12:04.525Z,71.11
2022-10-11T17:17:07.761Z,70.59
2022-10-11T17:22:15.287Z,70.75
2022-10-11T17:27:16.915Z,72.00
2022-10-11T17:32:18.489Z,73.24
2022-10-11T17:37:20.648Z,72.52
2022-10-11T17:42:22.486Z,72.17
2022-10-11T17:47:24.086Z,72.65
2022-10-11T17:52:25.636Z,73.15
2022-10-11T17:57:27.348Z,75.08
2022-10-11T18:02:28.915Z,75.44
2022-10-11T18:07:30.497Z,76.58
2022-10-11T18:12:32.038Z,76.59
2022-10-11T18:17:33.762Z,74.86
2022-10-11T18:22:35.433Z,75.88
2022-10-11T18:27:36.967Z,77.33
2022-10-11T18:32:38.664Z,77.59
2022-10-11T18:37:40.296Z,78.34
2022-10-11T18:42:41.913Z,78.47
2022-10-11T18:47:43.555Z,78.56
2022-10-11T18:52:47.448Z,79.90
2022-10-11T18:57:48.997Z,80.43
2022-10-11T19:02:51.103Z,80.49
2022-10-11T19:07:52.725Z,80.81
2022-10-11T19:12:54.366Z,80.92
2022-10-11T19:17:55.892Z,82.00
2022-10-11T19:22:57.447Z,82.31
2022-10-11T19:27:58.961Z,82.54
2022-10-11T19:33:00.816Z,82.70
2022-10-11T19:38:02.394Z,83.84
2022-10-11T19:43:04.034Z,84.68
2022-10-11T19:48:05.654Z,85.22
2022-10-11T19:53:07.375Z,85.68
2022-10-11T19:58:09.079Z,86.91
2022-10-11T20:03:10.772Z,86.99
2022-10-11T20:08:12.356Z,87.00
2022-10-11T20:13:14.006Z,85.54
2022-10-11T20:18:15.897Z,87.86
2022-10-11T20:23:18.403Z,88.05
2022-10-11T20:28:20.178Z,88.82
2022-10-11T20:33:21.783Z,87.28
2022-10-11T20:38:23.390Z,88.46
2022-10-11T20:43:25.275Z,90.13
2022-10-11T20:48:26.963Z,89.90
2022-10-11T20:53:29.707Z,89.72
2022-10-11T20:58:31.409Z,90.32
2022-10-11T21:03:32.951Z,89.49
2022-10-11T21:08:36.296Z,88.67
2022-10-11T21:13:38.374Z,89.69
2022-10-11T21:18:40.458Z,91.46
2022-10-11T21:23:42.119Z,91.94
2022-10-11T21:28:45.824Z,91.79
2022-10-11T21:33:48.005Z,90.46
2022-10-11T21:38:50.437Z,90.70
2022-10-11T21:43:53.144Z,92.92
2022-10-11T21:48:54.853Z,92.84
2022-10-11T21:53:59.511Z,90.20
2022-10-11T21:59:01.018Z,91.29
2022-10-11T22:04:04.900Z,93.88
2022-10-11T22:09:07.674Z,94.62
2022-10-11T22:14:09.274Z,94.65
2022-10-11T22:19:10.917Z,94.92
2022-10-11T22:24:12.830Z,94.98
2022-10-11T22:29:14.454Z,94.25
2022-10-11T22:34:16.050Z,91.65
2022-10-11T22:39:17.672Z,92.90
2022-10-11T22:44:19.242Z,94.54
2022-10-11T22:49:20.811Z,92.95
2022-10-11T22:54:22.561Z,92.60
2022-10-11T22:59:24.230Z,94.32
2022-10-11T23:04:25.811Z,94.41
2022-10-11T23:09:28.893Z,96.01
2022-10-11T23:14:30.482Z,96.35
2022-10-11T23:19:32.088Z,96.32
2022-10-11T23:24:33.612Z,96.43
2022-10-11T23:29:35.287Z,95.64
2022-10-11T23:34:37.178Z,95.01
2022-10-11T23:39:38.756Z,93.95
2022-10-11T23:44:40.455Z,91.72
2022-10-11T23:49:41.967Z,94.32
2022-10-11T23:54:43.587Z,94.59
2022-10-11T23:59:45.169Z,95.69
